createdAt,value
2024-04-25T00:01:33.305Z,93.87
2024-04-25T00:04:36.746Z,94.61
2024-04-25T00:07:40.178Z,93.61
2024-04-25T00:10:43.690Z,94.23
2024-04-25T00:13:47.400Z,93.23
2024-04-25T00:16:50.585Z,93.38
2024-04-25T00:19:55.129Z,95.20
2024-04-25T00:22:58.625Z,94.91
2024-04-25T00:26:02.097Z,93.47
2024-04-25T00:29:05.637Z,92.88
2024-04-25T00:32:09.579Z,93.31
2024-04-25T00:35:13.544Z,93.07
2024-04-25T00:38:17.930Z,93.56
2024-04-25T00:41:24.246Z,93.24
2024-04-25T00:44:30.218Z,93.62
2024-04-25T00:47:36.854Z,94.34
2024-04-25T00:50:40.575Z,94.56
2024-04-25T00:53:44.078Z,94.09
2024-04-25T00:56:49.974Z,94.17
2024-04-25T00:59:58.507Z,94.29
2024-04-25T01:03:05.939Z,94.88
2024-04-25T01:06:09.421Z,94.99
2024-04-25T01:09:14.050Z,94.78
2024-04-25T01:12:19.118Z,94.22
2024-04-25T01:15:28.093Z,94.30
2024-04-25T01:18:34.066Z,94.15
2024-04-25T01:21:37.064Z,94.02
2024-04-25T01:24:40.599Z,93.67
2024-04-25T01:27:44.723Z,93.37
2024-04-25T01:30:49.914Z,94.13
2024-04-25T01:33:55.390Z,93.52
2024-04-25T01:37:00.928Z,93.43
2024-04-25T01:40:05.892Z,92.54
2024-04-25T01:43:10.049Z,92.02
2024-04-25T01:46:13.768Z,92.12
2024-04-25T01:49:16.814Z,91.89
2024-04-25T01:52:26.637Z,91.76
2024-04-25T01:55:31.495Z,91.89
2024-04-25T01:58:34.483Z,92.75
2024-04-25T02:01:39.651Z,92.98
2024-04-25T02:04:45.212Z,93.60
2024-04-25T02:07:49.165Z,92.05
2024-04-25T02:10:53.624Z,92.18
2024-04-25T02:13:57.140Z,91.89
2024-04-25T02:17:00.107Z,92.05
2024-04-25T02:20:23.666Z,91.84
2024-04-25T02:23:47.959Z,92.56
2024-04-25T02:26:50.874Z,92.83
2024-04-25T02:29:55.661Z,91.44
2024-04-25T02:32:59.264Z,90.81
2024-04-25T02:36:02.834Z,91.74
2024-04-25T02:39:10.506Z,92.38
2024-04-25T02:42:15.238Z,91.97
2024-04-25T02:45:18.818Z,93.13
2024-04-25T02:48:22.367Z,93.52
2024-04-25T02:51:25.922Z,94.41
2024-04-25T02:54:30.621Z,93.53
2024-04-25T02:57:34.586Z,92.96
2024-04-25T03:00:39.408Z,92.91
2024-04-25T03:03:52.403Z,93.06
2024-04-25T03:06:57.327Z,92.54
2024-04-25T03:10:01.225Z,92.88
2024-04-25T03:13:11.739Z,94.95
2024-04-25T03:16:19.499Z,93.59
2024-04-25T03:19:22.948Z,95.18
2024-04-25T03:22:26.878Z,95.22
2024-04-25T03:25:30.489Z,94.91
2024-04-25T03:28:35.122Z,94.43
2024-04-25T03:31:38.012Z,93.77
2024-04-25T03:34:44.105Z,93.72
2024-04-25T03:37:46.936Z,93.61
2024-04-25T03:40:50.124Z,92.88
2024-04-25T03:43:55.759Z,94.27
2024-04-25T03:47:02.984Z,92.83
2024-04-25T03:50:10.494Z,93.74
2024-04-25T03:53:15.069Z,94.63
2024-04-25T03:56:21.002Z,93.29
2024-04-25T03:59:28.684Z,94.19
2024-04-25T04:02:34.366Z,93.76
2024-04-25T04:05:37.998Z,93.38
2024-04-25T04:08:48.969Z,92.08
2024-04-25T04:11:54.344Z,94.62
2024-04-25T04:14:57.930Z,93.45
2024-04-25T04:18:05.633Z,94.01
2024-04-25T04:21:10.585Z,92.13
2024-04-25T04:24:18.218Z,93.00
2024-04-25T04:27:22.922Z,93.28
2024-04-25T04:30:26.657Z,93.39
2024-04-25T04:33:39.867Z,92.22
2024-04-25T04:36:44.672Z,91.59
2024-04-25T04:39:48.307Z,92.51
2024-04-25T04:42:54.946Z,92.14
2024-04-25T04:45:59.298Z,90.70
2024-04-25T04:49:03.938Z,88.16
2024-04-25T04:52:07.408Z,85.91
2024-04-25T04:55:17.650Z,86.63
2024-04-25T04:58:25.350Z,82.17
2024-04-25T05:01:30.271Z,82.47
2024-04-25T05:04:39.706Z,83.41
2024-04-25T05:07:47.190Z,82.98
2024-04-25T05:10:53.759Z,79.92
2024-04-25T05:14:01.449Z,78.15
2024-04-25T05:17:06.630Z,75.31
2024-04-25T05:20:10.608Z,75.43
2024-04-25T05:23:20.550Z,74.06
2024-04-25T05:26:25.670Z,74.19
2024-04-25T05:29:33.790Z,73.02
2024-04-25T05:32:40.085Z,71.64
2024-04-25T05:35:54.337Z,71.09
2024-04-25T05:39:02.602Z,68.88
2024-04-25T05:42:12.824Z,66.02
2024-04-25T05:45:21.987Z,64.93
2024-04-25T05:52:02.941Z,63.43
2024-04-25T05:55:08.845Z,63.50
2024-04-25T05:58:44.692Z,61.92
2024-04-25T06:01:55.604Z,59.62
2024-04-25T06:05:00.397Z,61.21
2024-04-25T06:08:15.020Z,61.62
2024-04-25T06:11:29.407Z,59.90
2024-04-25T06:14:35.034Z,60.28
2024-04-25T06:17:43.684Z,59.08
2024-04-25T06:20:47.698Z,58.54
2024-04-25T06:24:01.045Z,58.49
2024-04-25T06:27:07.365Z,57.67
2024-04-25T06:33:38.484Z,57.02
2024-04-25T06:36:42.897Z,55.88
2024-04-25T06:39:52.342Z,57.20
2024-04-25T06:42:56.131Z,58.36
2024-04-25T06:47:14.588Z,55.47
2024-04-25T06:50:50.051Z,54.49
2024-04-25T06:59:45.679Z,52.81
2024-04-25T07:03:20.257Z,52.81
2024-04-25T07:06:42.964Z,51.35
2024-04-25T07:09:54.160Z,50.44
2024-04-25T07:13:01.787Z,51.23
2024-04-25T07:16:05.766Z,50.71
2024-04-25T07:19:19.035Z,50.14
2024-04-25T07:22:26.556Z,49.10
2024-04-25T07:25:30.714Z,50.81
2024-04-25T07:28:44.474Z,48.96
2024-04-25T07:31:49.137Z,48.24
2024-04-25T07:34:53.005Z,47.76
2024-04-25T07:37:57.432Z,46.54
2024-04-25T07:41:09.287Z,45.74
2024-04-25T07:44:25.764Z,49.18
2024-04-25T07:47:30.372Z,46.54
2024-04-25T07:50:41.614Z,46.05
2024-04-25T07:53:48.610Z,49.67
2024-04-25T07:56:52.700Z,46.48
2024-04-25T07:59:57.979Z,47.11
2024-04-25T08:03:01.595Z,48.30
2024-04-25T08:07:15.371Z,48.08
2024-04-25T08:20:41.670Z,49.99
2024-04-25T08:27:49.026Z,47.32
2024-04-25T08:30:53.633Z,47.62
2024-04-25T08:34:11.832Z,48.53
2024-04-25T08:37:21.289Z,49.92
2024-04-25T08:40:36.220Z,49.21
2024-04-25T08:43:52.898Z,50.12
2024-04-25T08:46:57.676Z,49.72
2024-04-25T08:50:08.154Z,49.87
2024-04-25T08:56:49.276Z,48.65
2024-04-25T08:59:55.258Z,46.40
2024-04-25T09:03:01.354Z,45.72
2024-04-25T09:06:04.839Z,46.12
2024-04-25T09:09:13.568Z,47.55
2024-04-25T09:12:18.388Z,47.18
2024-04-25T09:15:27.241Z,46.27
2024-04-25T09:18:35.965Z,47.77
2024-04-25T09:21:40.180Z,45.77
2024-04-25T09:24:50.121Z,45.57
2024-04-25T09:27:53.394Z,44.63
2024-04-25T09:31:01.372Z,45.54
2024-04-25T09:34:15.461Z,45.95
2024-04-25T09:37:25.546Z,44.37
2024-04-25T09:40:36.701Z,46.20
2024-04-25T09:43:41.555Z,44.88
2024-04-25T09:46:53.563Z,45.45
2024-04-25T09:50:11.122Z,44.89
2024-04-25T09:53:24.721Z,44.49
2024-04-25T09:56:30.853Z,45.25
2024-04-25T09:59:51.083Z,47.79
2024-04-25T10:02:58.335Z,43.98
2024-04-25T10:06:10.008Z,46.15
2024-04-25T10:09:13.774Z,46.71
2024-04-25T10:12:50.819Z,47.13
2024-04-25T10:16:02.185Z,47.62
2024-04-25T10:19:10.999Z,46.91
2024-04-25T10:22:26.737Z,43.90
2024-04-25T10:25:31.553Z,46.55
2024-04-25T10:28:35.662Z,47.35
2024-04-25T10:31:43.605Z,46.72
2024-04-25T10:34:50.557Z,45.69
2024-04-25T10:37:55.587Z,47.63
2024-04-25T10:41:07.514Z,47.28
2024-04-25T10:44:17.016Z,46.28
2024-04-25T10:47:20.823Z,46.83
2024-04-25T10:50:29.019Z,45.03
2024-04-25T10:53:32.675Z,47.04
2024-04-25T10:56:40.825Z,46.48
2024-04-25T10:59:46.174Z,47.01
2024-04-25T11:02:53.872Z,47.47
2024-04-25T11:06:01.756Z,43.46
2024-04-25T11:09:18.336Z,40.53
2024-04-25T11:12:25.369Z,42.72
2024-04-25T11:15:30.563Z,44.11
2024-04-25T11:18:35.606Z,42.07
2024-04-25T11:21:46.817Z,43.31
2024-04-25T11:25:01.546Z,44.24
2024-04-25T11:28:05.740Z,45.92
2024-04-25T11:31:09.631Z,46.78
2024-04-25T11:34:23.713Z,44.92
2024-04-25T11:37:40.426Z,45.38
2024-04-25T11:40:45.493Z,45.91
2024-04-25T11:43:50.287Z,43.18
2024-04-25T11:46:54.659Z,43.14
2024-04-25T11:49:57.656Z,40.12
2024-04-25T11:53:09.550Z,42.11
2024-04-25T11:56:14.159Z,39.16
2024-04-25T11:59:17.190Z,40.72
2024-04-25T12:02:24.506Z,40.83
2024-04-25T12:05:27.507Z,39.99
2024-04-25T12:08:31.260Z,41.38
2024-04-25T12:11:37.492Z,43.41
2024-04-25T12:14:44.763Z,43.45
2024-04-25T12:17:50.476Z,42.12
2024-04-25T12:20:53.564Z,41.92
2024-04-25T12:24:00.135Z,42.98
2024-04-25T12:27:03.662Z,44.33
2024-04-25T12:30:10.201Z,44.66
2024-04-25T12:33:14.350Z,45.17
2024-04-25T12:36:17.547Z,48.41
2024-04-25T12:39:23.457Z,45.64
2024-04-25T12:42:33.041Z,45.67
2024-04-25T12:45:37.848Z,46.93
2024-04-25T12:48:41.203Z,41.68
2024-04-25T12:51:45.280Z,40.03
2024-04-25T12:54:51.191Z,43.27
2024-04-25T12:58:04.482Z,38.66
2024-04-25T13:01:09.520Z,40.71
2024-04-25T13:04:19.861Z,46.63
2024-04-25T13:11:04.053Z,44.58
2024-04-25T13:14:10.795Z,44.46
2024-04-25T13:17:15.932Z,46.28
2024-04-25T13:20:21.362Z,47.22
2024-04-25T13:23:24.486Z,46.03
2024-04-25T13:26:33.079Z,47.09
2024-04-25T13:29:38.452Z,45.41
2024-04-25T13:32:50.566Z,44.42
2024-04-25T13:35:59.413Z,44.02
2024-04-25T13:39:02.978Z,43.38
2024-04-25T13:42:10.227Z,44.20
2024-04-25T13:45:16.037Z,45.00
2024-04-25T13:48:20.241Z,44.41
2024-04-25T13:51:24.007Z,43.33
2024-04-25T13:54:31.800Z,46.49
2024-04-25T13:57:40.319Z,46.89
2024-04-25T14:00:44.410Z,43.21
2024-04-25T14:03:52.417Z,44.59
2024-04-25T14:06:56.028Z,46.47
2024-04-25T14:10:02.928Z,45.01
2024-04-25T14:13:09.423Z,45.66
2024-04-25T14:16:17.036Z,45.07
2024-04-25T14:19:20.741Z,45.73
2024-04-25T14:22:29.589Z,47.62
2024-04-25T14:25:54.373Z,47.07
2024-04-25T14:29:03.772Z,46.54
2024-04-25T14:32:10.892Z,47.23
2024-04-25T14:35:18.506Z,50.34
2024-04-25T14:38:22.355Z,47.15
2024-04-25T14:41:25.885Z,48.45
2024-04-25T14:44:33.206Z,47.35
2024-04-25T14:47:37.914Z,48.90
2024-04-25T14:50:41.052Z,51.18
2024-04-25T14:53:47.606Z,51.68
2024-04-25T14:56:51.245Z,52.15
2024-04-25T14:59:57.055Z,50.25
2024-04-25T15:06:32.740Z,50.53
2024-04-25T15:09:35.710Z,48.64
2024-04-25T15:12:42.766Z,48.24
2024-04-25T15:15:50.111Z,50.32
2024-04-25T15:18:55.620Z,50.35
2024-04-25T15:22:05.076Z,49.80
2024-04-25T15:25:09.064Z,51.45
2024-04-25T15:28:21.231Z,50.68
2024-04-25T15:31:27.182Z,50.60
2024-04-25T15:34:31.716Z,50.09
2024-04-25T15:37:35.225Z,51.78
2024-04-25T15:40:51.437Z,52.29
2024-04-25T15:44:00.902Z,49.42
2024-04-25T15:47:16.441Z,49.04
2024-04-25T15:50:24.393Z,48.76
2024-04-25T15:53:27.454Z,50.23
2024-04-25T15:56:30.457Z,51.68
2024-04-25T15:59:36.078Z,52.28
2024-04-25T16:02:39.295Z,51.71
2024-04-25T16:05:43.931Z,50.39
2024-04-25T16:08:49.603Z,50.90
2024-04-25T16:11:55.756Z,51.28
2024-04-25T16:14:59.523Z,50.38
2024-04-25T16:18:05.394Z,48.68
2024-04-25T16:21:13.701Z,48.52
2024-04-25T16:24:24.765Z,49.06
2024-04-25T16:27:28.808Z,51.42
2024-04-25T16:31:08.088Z,54.41
2024-04-25T16:34:13.326Z,54.98
2024-04-25T16:37:21.646Z,54.29
2024-04-25T16:40:29.871Z,55.13
2024-04-25T16:43:38.218Z,54.56
2024-04-25T16:46:44.975Z,56.20
2024-04-25T16:49:50.032Z,54.44
2024-04-25T16:52:53.165Z,56.01
2024-04-25T16:55:56.311Z,56.77
2024-04-25T16:59:02.648Z,57.33
2024-04-25T17:02:08.824Z,57.04
2024-04-25T17:05:21.589Z,59.14
2024-04-25T17:08:31.090Z,61.49
2024-04-25T17:11:34.216Z,58.80
2024-04-25T17:14:38.437Z,60.00
2024-04-25T17:17:49.551Z,61.65
2024-04-25T17:20:57.331Z,63.30
2024-04-25T17:24:02.030Z,64.90
2024-04-25T17:27:07.598Z,64.92
2024-04-25T17:30:17.424Z,66.05
2024-04-25T17:33:23.344Z,65.91
2024-04-25T17:36:31.603Z,65.84
2024-04-25T17:39:34.674Z,66.82
2024-04-25T17:42:37.653Z,67.07
2024-04-25T17:45:43.311Z,67.99
2024-04-25T17:48:47.084Z,69.51
2024-04-25T17:51:51.296Z,68.51
2024-04-25T17:54:59.374Z,69.67
2024-04-25T17:58:05.479Z,70.16
2024-04-25T18:01:09.535Z,70.67
2024-04-25T18:04:14.462Z,70.71
2024-04-25T18:07:21.650Z,69.74
2024-04-25T18:10:30.308Z,70.59
2024-04-25T18:13:33.391Z,70.85
2024-04-25T18:16:37.227Z,72.02
2024-04-25T18:19:49.326Z,70.88
2024-04-25T18:22:54.964Z,70.13
2024-04-25T18:26:05.401Z,71.92
2024-04-25T18:29:08.380Z,70.39
2024-04-25T18:32:11.476Z,70.80
2024-04-25T18:35:14.464Z,71.25
2024-04-25T18:38:18.768Z,70.01
2024-04-25T18:41:28.304Z,71.68
2024-04-25T18:44:37.244Z,70.81
2024-04-25T18:47:46.651Z,72.15
2024-04-25T18:50:51.491Z,71.74
2024-04-25T18:53:54.663Z,71.44
2024-04-25T18:56:58.961Z,72.33
2024-04-25T19:00:05.237Z,72.17
2024-04-25T19:03:12.459Z,71.72
2024-04-25T19:06:27.282Z,72.47
2024-04-25T19:09:33.454Z,72.56
2024-04-25T19:12:42.099Z,72.44
2024-04-25T19:15:45.169Z,73.00
2024-04-25T19:18:48.912Z,73.52
2024-04-25T19:21:54.158Z,75.10
2024-04-25T19:24:58.065Z,75.29
2024-04-25T19:28:04.921Z,75.42
2024-04-25T19:31:35.194Z,74.45
2024-04-25T19:34:41.524Z,75.17
2024-04-25T19:37:51.926Z,74.21
2024-04-25T19:40:56.623Z,74.29
2024-04-25T19:44:11.793Z,75.14
2024-04-25T19:47:20.895Z,74.51
2024-04-25T19:50:30.934Z,75.58
2024-04-25T19:53:35.960Z,77.02
2024-04-25T19:56:43.228Z,76.24
2024-04-25T19:59:49.088Z,78.23
2024-04-25T20:02:59.538Z,77.98
2024-04-25T20:06:17.036Z,78.28
2024-04-25T20:09:20.916Z,77.67
2024-04-25T20:12:26.508Z,77.51
2024-04-25T20:15:29.868Z,78.48
2024-04-25T20:18:58.215Z,77.46
2024-04-25T20:22:05.129Z,77.59
2024-04-25T20:25:08.649Z,78.33
2024-04-25T20:28:12.106Z,78.32
2024-04-25T20:31:19.341Z,76.78
2024-04-25T20:34:23.954Z,78.04
2024-04-25T20:37:27.586Z,78.61
2024-04-25T20:40:31.566Z,78.48
2024-04-25T20:43:36.740Z,77.61
2024-04-25T20:46:45.130Z,76.84
2024-04-25T20:49:54.357Z,75.96
2024-04-25T20:52:57.762Z,75.06
2024-04-25T20:56:07.052Z,75.35
2024-04-25T20:59:09.972Z,74.22
2024-04-25T21:02:13.848Z,75.12
2024-04-25T21:05:19.478Z,73.96
2024-04-25T21:08:27.836Z,74.18
2024-04-25T21:11:31.610Z,75.38
2024-04-25T21:14:39.304Z,74.85
2024-04-25T21:17:45.217Z,74.37
2024-04-25T21:20:50.256Z,74.63
2024-04-25T21:24:07.088Z,74.29
2024-04-25T21:27:10.623Z,74.51
2024-04-25T21:30:18.142Z,75.53
2024-04-25T21:33:23.358Z,75.45
2024-04-25T21:36:36.444Z,75.08
2024-04-25T21:39:42.965Z,75.17
2024-04-25T21:42:46.598Z,75.17
2024-04-25T21:45:50.159Z,74.93
2024-04-25T21:48:55.157Z,75.79
2024-04-25T21:52:23.749Z,76.10
2024-04-25T21:55:26.794Z,76.21
2024-04-25T21:58:30.306Z,76.53
2024-04-25T22:01:33.861Z,77.18
2024-04-25T22:04:37.294Z,77.53
2024-04-25T22:07:41.047Z,78.45
2024-04-25T22:10:43.965Z,78.00
2024-04-25T22:13:46.844Z,77.00
2024-04-25T22:16:50.541Z,77.58
2024-04-25T22:19:59.438Z,77.27
2024-04-25T22:23:03.526Z,77.41
2024-04-25T22:26:07.956Z,77.82
2024-04-25T22:29:14.187Z,78.33
2024-04-25T22:32:17.162Z,78.02
2024-04-25T22:35:23.353Z,79.01
2024-04-25T22:38:26.861Z,78.98
2024-04-25T22:41:31.550Z,79.42
2024-04-25T22:44:36.359Z,78.95
2024-04-25T22:47:40.708Z,78.50
2024-04-25T22:50:44.297Z,80.93
2024-04-25T22:53:47.434Z,80.62
2024-04-25T22:56:51.389Z,80.94
2024-04-25T22:59:56.340Z,81.05
2024-04-25T23:02:59.826Z,81.72
2024-04-25T23:06:03.001Z,81.71
2024-04-25T23:09:07.014Z,81.58
2024-04-25T23:12:10.216Z,81.17
2024-04-25T23:15:13.916Z,81.75
2024-04-25T23:18:18.641Z,82.97
2024-04-25T23:21:22.147Z,84.42
2024-04-25T23:24:28.247Z,83.33
2024-04-25T23:27:37.053Z,83.19
2024-04-25T23:30:40.498Z,82.32
2024-04-25T23:33:43.786Z,83.16
2024-04-25T23:40:22.912Z,84.01
2024-04-25T23:43:30.024Z,83.88
2024-04-25T23:46:32.889Z,85.12
2024-04-25T23:49:36.342Z,83.43
2024-04-25T23:52:40.714Z,82.57
2024-04-25T23:55:45.001Z,83.82
2024-04-25T23:58:47.964Z,83.45
